Time;durP1;ratioP1;P1;durP2;ratioP2;P2;SDS_P1;SDS_P2;PMS_P1;PMS_P2;Temp;Humidity;BMP_temperature;BMP_pressure;BME280_temperature;BME280_humidity;BME280_pressure;Samples;Min_cycle;Max_cycle;Signal;HPM_P1;HPM_P2
2023/05/25 00:01:04;;;;;;;2.10;0.93;;;;;;;;;;5110860;28;20451;-68
2023/05/25 00:03:32;;;;;;;2.50;1.40;;;;;;;;;;5111121;28;20910;-67
2023/05/25 00:06:00;;;;;;;1.97;0.90;;;;;;;;;;5111267;28;20451;-68
2023/05/25 00:08:27;;;;;;;6.07;2.40;;;;;;;;;;5111016;28;20440;-68
2023/05/25 00:10:54;;;;;;;1.53;1.27;;;;;;;;;;5112198;27;20454;-67
2023/05/25 00:13:23;;;;;;;8.50;2.07;;;;;;;;;;5110998;28;20791;-67
2023/05/25 00:15:50;;;;;;;4.43;2.50;;;;;;;;;;5110586;28;20954;-68
2023/05/25 00:18:18;;;;;;;2.60;1.40;;;;;;;;;;5110752;28;20483;-68
2023/05/25 00:20:46;;;;;;;3.60;1.47;;;;;;;;;;5110811;28;20448;-68
2023/05/25 00:23:13;;;;;;;2.77;1.40;;;;;;;;;;5111055;28;20533;-68
2023/05/25 00:25:40;;;;;;;4.43;1.90;;;;;;;;;;5111611;28;20458;-67
2023/05/25 00:28:07;;;;;;;2.93;1.63;;;;;;;;;;5111452;28;20447;-67
2023/05/25 00:30:36;;;;;;;3.63;1.37;;;;;;;;;;5111246;28;20440;-68
2023/05/25 00:33:03;;;;;;;2.30;1.30;;;;;;;;;;5109535;28;20986;-67
2023/05/25 00:35:30;;;;;;;3.07;1.33;;;;;;;;;;5111008;28;20463;-67
2023/05/25 00:37:57;;;;;;;4.70;1.57;;;;;;;;;;5110169;28;20471;-68
2023/05/25 00:40:24;;;;;;;2.53;1.03;;;;;;;;;;5111449;28;20458;-67
2023/05/25 00:42:52;;;;;;;2.00;1.10;;;;;;;;;;5110379;28;20443;-67
2023/05/25 00:45:19;;;;;;;3.70;1.60;;;;;;;;;;5110864;28;20935;-67
2023/05/25 00:47:51;;;;;;;3.80;1.43;;;;;;;;;;5110754;28;20443;-68
2023/05/25 00:50:20;;;;;;;2.53;1.30;;;;;;;;;;5115406;28;20451;-68
2023/05/25 00:52:47;;;;;;;6.20;2.30;;;;;;;;;;5113822;28;20439;-68
2023/05/25 00:55:15;;;;;;;3.10;1.47;;;;;;;;;;5112643;28;20455;-68
2023/05/25 00:57:44;;;;;;;1.97;1.17;;;;;;;;;;5109309;28;20986;-70
2023/05/25 01:00:13;;;;;;;4.03;1.83;;;;;;;;;;5106050;28;20957;-68
2023/05/25 01:02:42;;;;;;;1.97;1.67;;;;;;;;;;5109822;28;20550;-69
2023/05/25 01:05:12;;;;;;;3.30;1.20;;;;;;;;;;5108874;28;20453;-67
2023/05/25 01:07:40;;;;;;;1.90;1.50;;;;;;;;;;5115502;28;20522;-68
2023/05/25 01:10:07;;;;;;;2.90;1.30;;;;;;;;;;5103587;28;20459;-67
2023/05/25 01:12:37;;;;;;;2.90;1.50;;;;;;;;;;5114856;28;20504;-68
2023/05/25 01:15:04;;;;;;;3.37;1.40;;;;;;;;;;5114539;28;20444;-67
2023/05/25 01:17:31;;;;;;;2.07;1.43;;;;;;;;;;5114923;28;20482;-67
2023/05/25 01:20:00;;;;;;;1.97;1.00;;;;;;;;;;5114409;28;20478;-68
2023/05/25 01:22:31;;;;;;;3.97;1.80;;;;;;;;;;5114858;28;20448;-68
2023/05/25 01:25:01;;;;;;;1.87;1.20;;;;;;;;;;5113250;28;20439;-68
2023/05/25 01:27:31;;;;;;;4.33;1.00;;;;;;;;;;5114678;28;20453;-68
2023/05/25 01:29:59;;;;;;;2.63;1.30;;;;;;;;;;5113374;28;20465;-67
2023/05/25 01:32:27;;;;;;;2.27;1.30;;;;;;;;;;5114168;28;20462;-68
2023/05/25 01:34:56;;;;;;;1.40;0.90;;;;;;;;;;5112933;28;20447;-68
2023/05/25 01:37:25;;;;;;;2.70;1.00;;;;;;;;;;5114627;28;20493;-68
2023/05/25 01:39:53;;;;;;;2.27;1.53;;;;;;;;;;5114115;28;20486;-68
2023/05/25 01:42:20;;;;;;;2.73;1.20;;;;;;;;;;5114641;28;20450;-68
2023/05/25 01:44:47;;;;;;;1.40;1.00;;;;;;;;;;5113080;28;20452;-68
2023/05/25 01:47:17;;;;;;;4.70;0.93;;;;;;;;;;5114477;28;20471;-67
2023/05/25 01:49:47;;;;;;;4.83;1.87;;;;;;;;;;5113727;28;20470;-68
2023/05/25 01:52:19;;;;;;;2.63;1.33;;;;;;;;;;5114476;28;20444;-67
2023/05/25 01:54:48;;;;;;;2.20;1.23;;;;;;;;;;5113177;28;20439;-67
2023/05/25 01:57:18;;;;;;;2.00;1.03;;;;;;;;;;5113761;28;21002;-68
2023/05/25 01:59:46;;;;;;;2.50;1.50;;;;;;;;;;5107644;28;20825;-69
2023/05/25 02:02:14;;;;;;;6.07;2.30;;;;;;;;;;5111404;28;20456;-68
2023/05/25 02:04:42;;;;;;;2.10;1.50;;;;;;;;;;5113211;28;20455;-69
2023/05/25 02:07:09;;;;;;;3.47;1.97;;;;;;;;;;5113938;28;20938;-68
2023/05/25 02:09:36;;;;;;;2.33;1.47;;;;;;;;;;5113485;28;20475;-68
2023/05/25 02:12:05;;;;;;;4.47;1.40;;;;;;;;;;5113205;28;20444;-68
2023/05/25 02:14:33;;;;;;;3.70;1.33;;;;;;;;;;5112829;28;21181;-66
2023/05/25 02:17:02;;;;;;;2.47;1.30;;;;;;;;;;5111771;28;20488;-68
2023/05/25 02:19:30;;;;;;;2.17;1.00;;;;;;;;;;5108777;28;20459;-68
2023/05/25 02:21:57;;;;;;;3.33;2.00;;;;;;;;;;5113034;28;20448;-69
2023/05/25 02:24:25;;;;;;;2.60;1.60;;;;;;;;;;5113032;28;20674;-68
2023/05/25 02:26:52;;;;;;;1.60;1.00;;;;;;;;;;5112392;28;20808;-67
2023/05/25 02:29:19;;;;;;;3.10;1.10;;;;;;;;;;5113709;28;20446;-68
2023/05/25 02:31:48;;;;;;;5.53;1.63;;;;;;;;;;5112697;28;20454;-68
2023/05/25 02:34:15;;;;;;;3.63;1.40;;;;;;;;;;5112952;28;20460;-67
2023/05/25 02:36:42;;;;;;;1.37;0.93;;;;;;;;;;5113468;28;20497;-71
2023/05/25 02:39:10;;;;;;;2.23;1.13;;;;;;;;;;5112923;28;20861;-68
2023/05/25 02:41:37;;;;;;;3.37;1.70;;;;;;;;;;5113524;28;20448;-68
2023/05/25 02:44:05;;;;;;;5.20;1.27;;;;;;;;;;5112572;28;20455;-68
2023/05/25 02:46:33;;;;;;;4.10;1.60;;;;;;;;;;5113350;28;20493;-68
2023/05/25 02:49:02;;;;;;;3.40;1.20;;;;;;;;;;5113026;28;20500;-68
2023/05/25 02:51:29;;;;;;;2.23;1.10;;;;;;;;;;5113025;28;20463;-68
2023/05/25 02:53:56;;;;;;;2.07;1.50;;;;;;;;;;5111812;28;20444;-68
2023/05/25 02:56:23;;;;;;;3.87;1.53;;;;;;;;;;5103906;28;20443;-69
2023/05/25 02:58:50;;;;;;;2.83;0.80;;;;;;;;;;5112707;28;20484;-69
2023/05/25 03:01:18;;;;;;;2.77;1.73;;;;;;;;;;5112537;28;20942;-69
2023/05/25 03:03:45;;;;;;;2.77;1.53;;;;;;;;;;5111243;28;20462;-69
2023/05/25 03:06:15;;;;;;;1.60;1.13;;;;;;;;;;5112921;28;20446;-69
2023/05/25 03:08:42;;;;;;;4.10;1.43;;;;;;;;;;5112650;28;20476;-69
2023/05/25 03:11:09;;;;;;;2.00;1.23;;;;;;;;;;5112342;28;20440;-69
2023/05/25 03:13:36;;;;;;;2.57;1.33;;;;;;;;;;5111924;28;20510;-68
2023/05/25 03:16:03;;;;;;;1.90;1.00;;;;;;;;;;5112023;28;20474;-68
2023/05/25 03:18:30;;;;;;;1.60;1.10;;;;;;;;;;5111809;28;20495;-69
2023/05/25 03:20:57;;;;;;;5.07;1.53;;;;;;;;;;5111216;28;20474;-69
2023/05/25 03:23:26;;;;;;;2.57;1.50;;;;;;;;;;5111663;28;20459;-69
2023/05/25 03:25:53;;;;;;;3.67;1.60;;;;;;;;;;5111625;28;20439;-69
2023/05/25 03:28:20;;;;;;;2.23;1.30;;;;;;;;;;5112140;28;20451;-68
2023/05/25 03:30:47;;;;;;;4.13;1.67;;;;;;;;;;5111431;28;20444;-69
2023/05/25 03:33:14;;;;;;;2.73;1.50;;;;;;;;;;5104969;28;20455;-69
2023/05/25 03:35:41;;;;;;;3.10;1.30;;;;;;;;;;5112394;28;20803;-69
2023/05/25 03:38:09;;;;;;;5.87;2.03;;;;;;;;;;5111822;28;20816;-69
2023/05/25 03:40:37;;;;;;;2.40;1.83;;;;;;;;;;5111986;28;20456;-68
2023/05/25 03:43:04;;;;;;;2.97;1.60;;;;;;;;;;5110668;28;20456;-68
2023/05/25 03:45:31;;;;;;;5.20;1.40;;;;;;;;;;5111579;28;20455;-68
2023/05/25 03:47:58;;;;;;;1.90;1.13;;;;;;;;;;5110647;28;20938;-68
2023/05/25 03:50:25;;;;;;;2.07;1.43;;;;;;;;;;5112123;28;20444;-68
2023/05/25 03:52:52;;;;;;;1.90;1.20;;;;;;;;;;5112133;27;20444;-68
2023/05/25 03:55:19;;;;;;;2.30;1.60;;;;;;;;;;5111339;28;20973;-68
2023/05/25 03:57:48;;;;;;;2.17;1.10;;;;;;;;;;5111011;28;20482;-68
2023/05/25 04:00:15;;;;;;;5.83;2.23;;;;;;;;;;5111466;28;20448;-68
2023/05/25 04:02:42;;;;;;;3.87;1.23;;;;;;;;;;5110001;28;20986;-71
2023/05/25 04:05:10;;;;;;;4.20;1.30;;;;;;;;;;5111495;28;20459;-68
2023/05/25 04:07:37;;;;;;;3.97;1.80;;;;;;;;;;5111119;28;20452;-68
2023/05/25 04:10:04;;;;;;;4.70;2.17;;;;;;;;;;5110660;28;20476;-68
2023/05/25 04:12:32;;;;;;;2.83;1.43;;;;;;;;;;5110174;28;20440;-68
2023/05/25 04:15:02;;;;;;;3.67;1.70;;;;;;;;;;5110721;28;20473;-68
2023/05/25 04:17:29;;;;;;;3.40;2.00;;;;;;;;;;5111463;28;20466;-68
2023/05/25 04:19:56;;;;;;;2.30;1.37;;;;;;;;;;5109991;28;20464;-68
2023/05/25 04:22:23;;;;;;;2.47;0.97;;;;;;;;;;5110098;28;20444;-68
2023/05/25 04:24:50;;;;;;;3.20;1.20;;;;;;;;;;5110732;28;20931;-68
2023/05/25 04:27:19;;;;;;;3.87;2.00;;;;;;;;;;5111315;28;20470;-68
2023/05/25 04:29:46;;;;;;;2.30;1.40;;;;;;;;;;5109625;28;20497;-68
2023/05/25 04:32:16;;;;;;;2.83;1.30;;;;;;;;;;5110458;28;20444;-68
2023/05/25 04:34:45;;;;;;;4.43;2.00;;;;;;;;;;5103702;28;20980;-69
2023/05/25 04:37:12;;;;;;;4.70;1.77;;;;;;;;;;5110961;28;20509;-69
2023/05/25 04:39:39;;;;;;;5.87;1.90;;;;;;;;;;5109482;28;20483;-68
2023/05/25 04:42:07;;;;;;;2.90;1.30;;;;;;;;;;5110134;28;20454;-68
2023/05/25 04:44:34;;;;;;;4.87;1.20;;;;;;;;;;5108845;28;20931;-68
2023/05/25 04:47:02;;;;;;;2.90;1.23;;;;;;;;;;5110357;28;20452;-66
2023/05/25 04:49:30;;;;;;;7.70;2.03;;;;;;;;;;5111068;28;20517;-66
2023/05/25 04:51:57;;;;;;;3.63;2.87;;;;;;;;;;5110552;28;20803;-66
2023/05/25 04:54:25;;;;;;;3.17;2.00;;;;;;;;;;5110340;28;20446;-66
2023/05/25 04:56:52;;;;;;;4.43;1.90;;;;;;;;;;5108567;28;20546;-67
2023/05/25 04:59:19;;;;;;;1.70;1.10;;;;;;;;;;5106804;28;20471;-67
2023/05/25 05:01:46;;;;;;;6.60;1.80;;;;;;;;;;5109533;28;20455;-66
2023/05/25 05:04:15;;;;;;;2.40;1.40;;;;;;;;;;5110311;28;20444;-68
2023/05/25 05:06:43;;;;;;;4.93;2.17;;;;;;;;;;5110123;28;20527;-67
2023/05/25 05:09:10;;;;;;;4.27;1.77;;;;;;;;;;5111192;28;20475;-67
2023/05/25 05:11:37;;;;;;;5.53;2.60;;;;;;;;;;5111123;28;20458;-68
2023/05/25 05:14:05;;;;;;;3.53;1.90;;;;;;;;;;5109511;28;20455;-68
2023/05/25 05:16:33;;;;;;;3.90;2.43;;;;;;;;;;5110597;28;20837;-68
2023/05/25 05:19:01;;;;;;;3.40;2.20;;;;;;;;;;5110517;28;20480;-67
2023/05/25 05:21:29;;;;;;;3.73;1.90;;;;;;;;;;5110839;28;20440;-66
2023/05/25 05:24:00;;;;;;;3.83;2.27;;;;;;;;;;5108550;28;20475;-67
2023/05/25 05:26:27;;;;;;;3.20;1.40;;;;;;;;;;5110428;28;20475;-66
2023/05/25 05:28:54;;;;;;;4.33;2.57;;;;;;;;;;5096129;28;20451;-69
2023/05/25 05:31:23;;;;;;;3.00;1.97;;;;;;;;;;5109785;28;20477;-68
2023/05/25 05:33:50;;;;;;;4.40;2.00;;;;;;;;;;5110303;28;20447;-66
2023/05/25 05:36:17;;;;;;;5.30;2.00;;;;;;;;;;5114686;28;20512;-66
2023/05/25 05:38:45;;;;;;;3.27;2.60;;;;;;;;;;5112993;28;20807;-67
2023/05/25 05:41:14;;;;;;;5.50;2.30;;;;;;;;;;5114513;28;20462;-68
2023/05/25 05:43:42;;;;;;;6.03;2.20;;;;;;;;;;5113147;28;20446;-67
2023/05/25 05:46:09;;;;;;;2.57;1.97;;;;;;;;;;5110669;28;20447;-67
2023/05/25 05:48:36;;;;;;;7.37;4.17;;;;;;;;;;5113423;28;20512;-68
2023/05/25 05:51:04;;;;;;;2.43;1.57;;;;;;;;;;5122014;27;20454;-66
2023/05/25 05:53:31;;;;;;;3.10;2.10;;;;;;;;;;5114099;28;20443;-67
2023/05/25 05:55:58;;;;;;;4.63;2.07;;;;;;;;;;5114918;27;20459;-66
2023/05/25 05:58:27;;;;;;;4.20;2.00;;;;;;;;;;5114159;28;20538;-67
2023/05/25 06:00:55;;;;;;;3.73;2.13;;;;;;;;;;5118659;27;20852;-68
2023/05/25 06:03:22;;;;;;;3.17;2.30;;;;;;;;;;5116850;27;20949;-68
2023/05/25 06:05:49;;;;;;;3.37;2.40;;;;;;;;;;5125761;27;20447;-67
2023/05/25 06:08:16;;;;;;;16.00;2.43;;;;;;;;;;5114314;28;20451;-67
2023/05/25 06:10:43;;;;;;;2.70;1.90;;;;;;;;;;5113272;28;20446;-67
2023/05/25 06:13:10;;;;;;;4.57;1.83;;;;;;;;;;5113954;28;20439;-67
2023/05/25 06:15:39;;;;;;;4.80;1.90;;;;;;;;;;5114141;28;20516;-67
2023/05/25 06:18:07;;;;;;;2.37;1.50;;;;;;;;;;5113394;28;20502;-68
2023/05/25 06:20:35;;;;;;;4.10;2.30;;;;;;;;;;5112484;28;20947;-66
2023/05/25 06:23:02;;;;;;;9.53;2.10;;;;;;;;;;5112045;28;20808;-66
2023/05/25 06:25:29;;;;;;;3.83;2.30;;;;;;;;;;5113321;28;20443;-66
2023/05/25 06:27:56;;;;;;;3.70;2.40;;;;;;;;;;5112791;28;20501;-66
2023/05/25 06:30:23;;;;;;;2.93;2.10;;;;;;;;;;5112370;28;20448;-66
2023/05/25 06:32:52;;;;;;;4.50;2.20;;;;;;;;;;5111393;28;20812;-67
2023/05/25 06:35:19;;;;;;;4.00;2.20;;;;;;;;;;5113050;28;20455;-68
2023/05/25 06:37:47;;;;;;;6.70;2.80;;;;;;;;;;5112860;28;20456;-68
2023/05/25 06:40:14;;;;;;;4.33;2.20;;;;;;;;;;5113107;28;20471;-68
2023/05/25 06:42:42;;;;;;;6.50;2.03;;;;;;;;;;5112764;28;20444;-68
2023/05/25 06:45:09;;;;;;;7.37;2.70;;;;;;;;;;5112183;28;20861;-66
2023/05/25 06:47:37;;;;;;;5.63;3.30;;;;;;;;;;5110774;28;20460;-66
2023/05/25 06:50:06;;;;;;;3.93;2.63;;;;;;;;;;5111103;28;20458;-66
2023/05/25 06:52:33;;;;;;;5.00;2.77;;;;;;;;;;5112527;28;20539;-68
2023/05/25 06:55:02;;;;;;;2.93;2.30;;;;;;;;;;5111506;28;20452;-67
2023/05/25 06:57:29;;;;;;;9.80;2.30;;;;;;;;;;5104264;28;20530;-68
2023/05/25 06:59:56;;;;;;;3.50;2.23;;;;;;;;;;5109176;28;20468;-68
2023/05/25 07:02:23;;;;;;;7.63;3.30;;;;;;;;;;5112293;28;20450;-67
2023/05/25 07:04:51;;;;;;;3.57;2.10;;;;;;;;;;5111644;28;20444;-68
2023/05/25 07:07:21;;;;;;;3.80;2.33;;;;;;;;;;5112614;28;20526;-67
2023/05/25 07:09:48;;;;;;;4.80;3.07;;;;;;;;;;5111748;28;20552;-68
2023/05/25 07:12:15;;;;;;;3.20;2.23;;;;;;;;;;5112265;28;20950;-67
2023/05/25 07:14:46;;;;;;;3.57;2.10;;;;;;;;;;5112916;28;20448;-69
2023/05/25 07:17:14;;;;;;;3.20;1.80;;;;;;;;;;5112109;28;20531;-68
2023/05/25 07:19:42;;;;;;;5.50;2.70;;;;;;;;;;5113099;28;20536;-67
2023/05/25 07:22:09;;;;;;;4.37;3.57;;;;;;;;;;5112487;28;20444;-68
2023/05/25 07:24:38;;;;;;;4.80;2.40;;;;;;;;;;5112733;28;20452;-67
2023/05/25 07:27:05;;;;;;;5.00;2.53;;;;;;;;;;5110558;28;20794;-67
2023/05/25 07:29:32;;;;;;;2.90;2.20;;;;;;;;;;5112422;28;20456;-67
2023/05/25 07:32:00;;;;;;;3.60;2.10;;;;;;;;;;5111861;28;20443;-67
2023/05/25 07:34:27;;;;;;;5.00;2.13;;;;;;;;;;5112468;28;20487;-67
2023/05/25 07:36:54;;;;;;;4.70;2.07;;;;;;;;;;5111088;28;20483;-67
2023/05/25 07:39:21;;;;;;;4.63;2.80;;;;;;;;;;5112484;28;20574;-67
2023/05/25 07:41:50;;;;;;;7.50;2.60;;;;;;;;;;5111705;28;20448;-67
2023/05/25 07:44:17;;;;;;;4.60;2.53;;;;;;;;;;5112345;28;20459;-67
2023/05/25 07:46:44;;;;;;;3.07;2.33;;;;;;;;;;5111267;28;20465;-68
2023/05/25 07:49:14;;;;;;;4.03;2.03;;;;;;;;;;5112462;28;20439;-67
2023/05/25 07:51:42;;;;;;;4.57;2.33;;;;;;;;;;5112402;28;20806;-67
2023/05/25 07:54:09;;;;;;;5.40;2.27;;;;;;;;;;5112236;28;20470;-67
2023/05/25 07:56:36;;;;;;;4.07;2.10;;;;;;;;;;5103219;28;20458;-67
2023/05/25 07:59:04;;;;;;;3.03;2.03;;;;;;;;;;5110926;28;20962;-67
2023/05/25 08:01:32;;;;;;;4.10;2.27;;;;;;;;;;5098247;28;20440;-67
2023/05/25 08:03:59;;;;;;;4.77;2.80;;;;;;;;;;5111040;28;20930;-67
2023/05/25 08:06:26;;;;;;;5.73;2.60;;;;;;;;;;5111845;28;20448;-67
2023/05/25 08:08:53;;;;;;;4.70;2.60;;;;;;;;;;5110457;28;21057;-67
2023/05/25 08:11:25;;;;;;;4.60;2.90;;;;;;;;;;5111601;28;20444;-67
2023/05/25 08:13:52;;;;;;;3.00;2.50;;;;;;;;;;5111433;28;20841;-67
2023/05/25 08:16:20;;;;;;;5.87;2.90;;;;;;;;;;5111734;28;20451;-67
2023/05/25 08:18:48;;;;;;;6.07;3.07;;;;;;;;;;5110775;28;20456;-66
2023/05/25 08:21:15;;;;;;;4.40;2.37;;;;;;;;;;5111837;28;20474;-66
2023/05/25 08:23:42;;;;;;;3.70;2.57;;;;;;;;;;5110969;28;20448;-68
2023/05/25 08:26:10;;;;;;;4.43;2.70;;;;;;;;;;5108808;28;20962;-67
2023/05/25 08:28:37;;;;;;;4.73;2.80;;;;;;;;;;5111117;28;20930;-67
2023/05/25 08:31:04;;;;;;;7.33;2.73;;;;;;;;;;5111018;28;20451;-67
2023/05/25 08:33:33;;;;;;;3.83;2.53;;;;;;;;;;5111517;28;20444;-67
2023/05/25 08:36:00;;;;;;;6.50;3.50;;;;;;;;;;5110694;28;20929;-67
2023/05/25 08:38:27;;;;;;;4.27;2.83;;;;;;;;;;5111089;28;20458;-67
2023/05/25 08:41:02;;;;;;;4.27;2.97;;;;;;;;;;5111047;28;20566;-67
2023/05/25 08:43:29;;;;;;;5.30;3.13;;;;;;;;;;5111332;28;20945;-67
2023/05/25 08:45:58;;;;;;;3.70;2.83;;;;;;;;;;5110982;28;20869;-67
2023/05/25 08:48:27;;;;;;;4.50;2.30;;;;;;;;;;5110812;28;20461;-67
2023/05/25 08:50:57;;;;;;;4.93;2.23;;;;;;;;;;5110995;28;20451;-67
2023/05/25 08:53:25;;;;;;;3.63;2.27;;;;;;;;;;5111560;28;20786;-67
2023/05/25 08:55:54;;;;;;;3.80;3.00;;;;;;;;;;5102915;28;20449;-67
2023/05/25 08:58:24;;;;;;;8.50;3.07;;;;;;;;;;5109402;28;20938;-67
2023/05/25 09:00:55;;;;;;;4.10;3.27;;;;;;;;;;5097092;28;20486;-67
2023/05/25 09:03:23;;;;;;;6.63;2.37;;;;;;;;;;5098141;28;20444;-67
2023/05/25 09:05:50;;;;;;;5.70;2.20;;;;;;;;;;5110793;28;20440;-67
2023/05/25 09:08:20;;;;;;;4.33;2.67;;;;;;;;;;5110842;28;20447;-67
2023/05/25 09:10:48;;;;;;;4.07;2.83;;;;;;;;;;5114749;28;20451;-64
2023/05/25 09:13:16;;;;;;;3.73;2.20;;;;;;;;;;5115141;28;20451;-68
2023/05/25 09:15:43;;;;;;;3.90;3.03;;;;;;;;;;5114594;28;20801;-68
2023/05/25 09:18:10;;;;;;;6.30;2.50;;;;;;;;;;5114726;28;20452;-66
2023/05/25 09:20:37;;;;;;;4.70;3.30;;;;;;;;;;5114684;28;21090;-66
2023/05/25 09:23:04;;;;;;;3.00;2.50;;;;;;;;;;5114541;28;20451;-66
2023/05/25 09:25:33;;;;;;;4.47;2.43;;;;;;;;;;5111902;28;20444;-66
2023/05/25 09:28:00;;;;;;;3.00;2.23;;;;;;;;;;5113741;28;20455;-66
2023/05/25 09:30:31;;;;;;;5.70;2.67;;;;;;;;;;5114917;28;20477;-66
2023/05/25 09:33:09;;;;;;;3.37;2.30;;;;;;;;;;5114244;28;20508;-66
2023/05/25 09:35:36;;;;;;;3.00;2.10;;;;;;;;;;5114630;28;20451;-67
2023/05/25 09:38:03;;;;;;;3.50;2.57;;;;;;;;;;5113932;28;20439;-66
2023/05/25 09:40:32;;;;;;;6.73;3.30;;;;;;;;;;5114653;28;20475;-66
2023/05/25 09:42:59;;;;;;;4.70;2.63;;;;;;;;;;5114224;28;20472;-67
2023/05/25 09:45:27;;;;;;;5.67;2.70;;;;;;;;;;5114731;28;20478;-67
2023/05/25 09:47:55;;;;;;;6.93;2.90;;;;;;;;;;5113682;28;20446;-67
2023/05/25 09:50:22;;;;;;;3.97;2.53;;;;;;;;;;5114372;28;20450;-67
2023/05/25 09:52:49;;;;;;;3.57;2.40;;;;;;;;;;5113727;28;20508;-67
2023/05/25 09:55:16;;;;;;;4.70;2.70;;;;;;;;;;5114555;28;20448;-67
2023/05/25 09:57:45;;;;;;;4.23;3.20;;;;;;;;;;5113349;28;20530;-67
2023/05/25 10:00:13;;;;;;;3.77;2.33;;;;;;;;;;5114273;28;20475;-66
2023/05/25 10:02:41;;;;;;;3.60;2.10;;;;;;;;;;5114008;28;20969;-67
2023/05/25 10:05:09;;;;;;;5.70;2.80;;;;;;;;;;5114234;28;20459;-67
2023/05/25 10:07:37;;;;;;;4.07;2.57;;;;;;;;;;5113841;28;20451;-67
2023/05/25 10:10:06;;;;;;;3.40;2.50;;;;;;;;;;5113754;28;20482;-67
2023/05/25 10:12:33;;;;;;;5.67;2.80;;;;;;;;;;5113819;28;20931;-67
2023/05/25 10:15:03;;;;;;;3.43;2.30;;;;;;;;;;5113318;28;20463;-67
2023/05/25 10:17:32;;;;;;;4.57;2.63;;;;;;;;;;5113530;28;20927;-68
2023/05/25 10:20:00;;;;;;;3.00;1.97;;;;;;;;;;5112610;28;20495;-66
2023/05/25 10:22:32;;;;;;;2.80;2.50;;;;;;;;;;5113153;28;20444;-66
2023/05/25 10:25:04;;;;;;;5.13;2.80;;;;;;;;;;5112976;28;20438;-66
2023/05/25 10:27:34;;;;;;;3.50;2.47;;;;;;;;;;5112151;28;20922;-68
2023/05/25 10:30:03;;;;;;;4.67;2.90;;;;;;;;;;5113526;28;20793;-68
2023/05/25 10:32:31;;;;;;;2.90;2.20;;;;;;;;;;5113785;28;20451;-66
2023/05/25 10:34:59;;;;;;;2.90;2.00;;;;;;;;;;5113000;28;21013;-66
2023/05/25 10:37:27;;;;;;;2.63;2.00;;;;;;;;;;5113076;28;20944;-66
2023/05/25 10:39:57;;;;;;;3.73;2.83;;;;;;;;;;5112974;28;20479;-66
2023/05/25 10:42:24;;;;;;;2.97;2.67;;;;;;;;;;5113448;28;20510;-65
2023/05/25 10:44:51;;;;;;;3.07;2.13;;;;;;;;;;5112732;28;20965;-68
2023/05/25 10:47:20;;;;;;;5.77;2.53;;;;;;;;;;5113062;28;20444;-65
2023/05/25 10:49:54;;;;;;;4.30;2.07;;;;;;;;;;5113157;28;20456;-68
2023/05/25 10:52:22;;;;;;;2.60;2.03;;;;;;;;;;5113674;28;20439;-67
2023/05/25 10:54:49;;;;;;;4.10;2.40;;;;;;;;;;5112767;28;20804;-67
2023/05/25 10:57:19;;;;;;;4.37;2.77;;;;;;;;;;5103121;28;20455;-65
2023/05/25 10:59:49;;;;;;;6.73;2.33;;;;;;;;;;5112570;28;20466;-68
2023/05/25 11:02:16;;;;;;;2.87;2.17;;;;;;;;;;5113242;28;20451;-67
2023/05/25 11:04:47;;;;;;;3.30;2.80;;;;;;;;;;5112237;28;20458;-67
2023/05/25 11:07:15;;;;;;;3.50;2.33;;;;;;;;;;5112704;28;20447;-67
2023/05/25 11:09:43;;;;;;;3.00;2.43;;;;;;;;;;5113203;28;20552;-67
2023/05/25 11:12:19;;;;;;;3.80;2.93;;;;;;;;;;5112832;28;20833;-67
2023/05/25 11:15:06;;;;;;;2.60;2.20;;;;;;;;;;5112583;28;20443;-66
2023/05/25 11:17:35;;;;;;;7.20;3.00;;;;;;;;;;5111961;28;20454;-66
2023/05/25 11:20:05;;;;;;;4.77;3.30;;;;;;;;;;5112334;28;20923;-66
2023/05/25 11:22:34;;;;;;;3.20;2.70;;;;;;;;;;5112500;28;20497;-66
2023/05/25 11:25:02;;;;;;;3.60;1.97;;;;;;;;;;5111252;28;20448;-66
2023/05/25 11:27:30;;;;;;;3.43;2.00;;;;;;;;;;5110757;28;20448;-66
2023/05/25 11:29:58;;;;;;;2.57;2.37;;;;;;;;;;5112033;28;20455;-66
2023/05/25 11:32:25;;;;;;;4.10;2.93;;;;;;;;;;5111937;28;20444;-66
2023/05/25 11:34:53;;;;;;;4.30;2.00;;;;;;;;;;5111979;28;20496;-66
2023/05/25 11:37:23;;;;;;;3.93;2.33;;;;;;;;;;5112051;28;20816;-66
2023/05/25 11:39:51;;;;;;;3.10;2.80;;;;;;;;;;5111369;28;20454;-66
2023/05/25 11:42:20;;;;;;;3.20;2.43;;;;;;;;;;5111748;28;20440;-66
2023/05/25 11:44:47;;;;;;;3.43;2.47;;;;;;;;;;5111420;28;20463;-66
2023/05/25 11:47:18;;;;;;;3.40;2.20;;;;;;;;;;5111770;28;20451;-66
2023/05/25 11:49:48;;;;;;;3.87;2.20;;;;;;;;;;5111938;28;20455;-66
2023/05/25 11:52:16;;;;;;;3.30;2.33;;;;;;;;;;5111920;28;20518;-67
2023/05/25 11:54:44;;;;;;;3.00;2.63;;;;;;;;;;5111634;28;20867;-68
2023/05/25 11:57:15;;;;;;;3.03;2.20;;;;;;;;;;5111615;28;20444;-67
2023/05/25 11:59:48;;;;;;;3.20;2.17;;;;;;;;;;5112191;28;20445;-68
2023/05/25 12:02:15;;;;;;;3.03;2.33;;;;;;;;;;5112166;28;20508;-67
2023/05/25 12:04:52;;;;;;;4.00;2.23;;;;;;;;;;5111668;28;20803;-69
2023/05/25 12:07:19;;;;;;;3.40;2.50;;;;;;;;;;5111795;28;20439;-67
2023/05/25 12:09:48;;;;;;;3.77;1.97;;;;;;;;;;5111095;28;20563;-67
2023/05/25 12:12:15;;;;;;;3.33;2.63;;;;;;;;;;5111968;28;20450;-67
2023/05/25 12:14:47;;;;;;;3.30;3.00;;;;;;;;;;5112106;28;20450;-67
2023/05/25 12:17:14;;;;;;;2.90;2.33;;;;;;;;;;5111026;28;20936;-67
2023/05/25 12:19:42;;;;;;;4.27;2.50;;;;;;;;;;5112251;28;20458;-67
2023/05/25 12:22:09;;;;;;;2.80;2.57;;;;;;;;;;5111925;28;20575;-67
2023/05/25 12:24:36;;;;;;;2.93;2.30;;;;;;;;;;5111492;28;21006;-67
2023/05/25 12:27:05;;;;;;;3.03;1.87;;;;;;;;;;5110456;28;20458;-68
2023/05/25 12:29:32;;;;;;;3.27;2.23;;;;;;;;;;5111836;28;20763;-67
2023/05/25 12:32:03;;;;;;;3.37;2.77;;;;;;;;;;5110627;28;20447;-67
2023/05/25 12:34:30;;;;;;;3.93;2.17;;;;;;;;;;5111700;28;20447;-67
2023/05/25 12:36:57;;;;;;;2.30;1.90;;;;;;;;;;5110304;28;20455;-68
2023/05/25 12:39:37;;;;;;;2.80;2.10;;;;;;;;;;5111332;28;20444;-67
2023/05/25 12:42:06;;;;;;;2.77;2.50;;;;;;;;;;5111041;28;20555;-67
2023/05/25 12:44:34;;;;;;;3.67;2.57;;;;;;;;;;5110722;28;20470;-67
2023/05/25 12:47:10;;;;;;;2.90;2.23;;;;;;;;;;5110088;28;20450;-68
2023/05/25 12:49:37;;;;;;;3.20;2.60;;;;;;;;;;5111798;28;20512;-67
2023/05/25 12:52:05;;;;;;;3.63;2.47;;;;;;;;;;5110936;28;20443;-67
2023/05/25 12:54:36;;;;;;;2.97;2.20;;;;;;;;;;5111449;28;20855;-67
2023/05/25 12:57:06;;;;;;;3.20;2.33;;;;;;;;;;5107858;28;20547;-67
2023/05/25 12:59:33;;;;;;;3.80;2.93;;;;;;;;;;5111264;28;21526;-67
2023/05/25 13:02:01;;;;;;;3.17;2.30;;;;;;;;;;5110454;28;20817;-66
2023/05/25 13:04:28;;;;;;;3.63;2.63;;;;;;;;;;5111130;28;20794;-66
2023/05/25 13:06:55;;;;;;;2.50;2.00;;;;;;;;;;5110320;28;20439;-66
2023/05/25 13:09:25;;;;;;;4.00;2.47;;;;;;;;;;5110814;28;20977;-66
2023/05/25 13:11:53;;;;;;;2.73;2.53;;;;;;;;;;5110517;28;20454;-66
2023/05/25 13:14:21;;;;;;;5.00;3.23;;;;;;;;;;5111037;28;20483;-66
2023/05/25 13:16:49;;;;;;;3.50;2.70;;;;;;;;;;5110079;28;20509;-67
2023/05/25 13:19:16;;;;;;;3.73;2.40;;;;;;;;;;5110334;28;20946;-67
2023/05/25 13:21:44;;;;;;;2.60;2.30;;;;;;;;;;5109928;28;21021;-67
2023/05/25 13:24:12;;;;;;;3.27;2.53;;;;;;;;;;5111073;28;20538;-66
2023/05/25 13:26:39;;;;;;;3.93;2.23;;;;;;;;;;5109065;28;20444;-66
2023/05/25 13:29:06;;;;;;;3.27;2.57;;;;;;;;;;5110427;28;20443;-66
2023/05/25 13:31:34;;;;;;;3.23;2.30;;;;;;;;;;5111048;28;20459;-66
2023/05/25 13:34:02;;;;;;;3.83;2.10;;;;;;;;;;5109991;28;20439;-66
2023/05/25 13:36:31;;;;;;;2.80;2.50;;;;;;;;;;5110137;28;20448;-66
2023/05/25 13:38:58;;;;;;;4.90;2.80;;;;;;;;;;5110829;28;20451;-66
2023/05/25 13:41:27;;;;;;;3.33;2.50;;;;;;;;;;5110858;28;20595;-65
2023/05/25 13:43:54;;;;;;;3.40;2.23;;;;;;;;;;5110456;28;20451;-66
2023/05/25 13:46:21;;;;;;;3.00;2.23;;;;;;;;;;5110440;28;20808;-67
2023/05/25 13:48:50;;;;;;;4.93;2.67;;;;;;;;;;5110300;28;20455;-65
2023/05/25 13:51:17;;;;;;;2.70;2.37;;;;;;;;;;5109925;28;20458;-67
2023/05/25 13:53:45;;;;;;;4.33;2.97;;;;;;;;;;5109966;28;20450;-67
2023/05/25 13:56:12;;;;;;;3.57;2.57;;;;;;;;;;5112986;28;20448;-67
2023/05/25 13:58:39;;;;;;;2.50;1.97;;;;;;;;;;5114498;28;20470;-68
2023/05/25 14:01:06;;;;;;;3.80;2.33;;;13.80;1.00;;;;;;5113724;28;20486;-65
2023/05/25 14:03:33;;;;;;;4.50;2.50;;;24.60;1.00;;;;;;5114173;28;20469;-66
2023/05/25 14:06:01;;;;;;;3.20;2.53;;;24.20;1.00;;;;;;5113279;28;20728;-66
2023/05/25 14:08:29;;;;;;;3.57;2.27;;;;;;;;;;5113786;28;20451;-66
2023/05/25 14:10:56;;;;;;;4.07;2.87;;;;;;;;;;5113709;28;20448;-66
2023/05/25 14:13:23;;;;;;;2.90;2.33;;;;;;;;;;5114150;28;20444;-66
2023/05/25 14:15:50;;;;;;;3.07;2.77;;;;;;;;;;5113579;28;20443;-65
2023/05/25 14:18:17;;;;;;;5.43;2.33;;;;;;;;;;5113303;28;20451;-67
2023/05/25 14:20:44;;;;;;;3.23;2.70;;;;;;;;;;5113493;28;20451;-66
2023/05/25 14:23:14;;;;;;;2.73;2.30;;;;;;;;;;5114152;28;20455;-67
2023/05/25 14:25:42;;;;;;;3.97;2.50;;;;;;;;;;5114212;28;20471;-67
2023/05/25 14:28:08;;;;;;;2.30;1.80;;;24.70;1.00;;;;;;5111713;28;20925;-67
2023/05/25 14:30:35;;;;;;;5.07;2.73;;;25.10;1.00;;;;;;5113306;28;20925;-70
2023/05/25 14:33:02;;;;;;;5.00;3.07;;;25.10;1.00;;;;;;5113022;28;20555;-68
2023/05/25 14:35:29;;;;;;;2.67;2.27;;;24.70;1.00;;;;;;5113267;28;20443;-68
2023/05/25 14:37:56;;;;;;;3.50;2.47;;;24.60;1.00;;;;;;5112218;28;20451;-69
2023/05/25 14:40:24;;;;;;;3.23;2.77;;;25.30;1.00;;;;;;5107439;27;20542;-68
2023/05/25 14:42:50;;;;;;;4.03;2.13;;;25.70;1.00;;;;;;5112651;27;20473;-69